Pagrindinis puslapis
METAR-TAF:

METAR-TAF

Oro uostai :

Santa Marija, Pietų Rio Grandė, Brazilija

platuma: 29-43S, ilguma: 053-42W, Aukštis: 85 m

Dabartinis oras

Ataskaita buvo paskelbta 54 minutes, ne 09:00 UTC
Vėjas 2 kt nuo kintamojo kryptimis
Temperatūra 17°C
Drėgmė 88%
Slėgis 1012 hPa
Matomumas 10 km arba daugiau
nėra debesų žemiau 1500 m ir nėra kamuolinių lietaus debesų

METAR: SBSM 090900Z VRB02KT CAVOK 17/15 Q1012

Laikas: 06:54 (09:54 UTC)

Prognozė

Ataskaita buvo paskelbta 6 valandos ir 54 minutes, ne 03:00 UTC
Prognozė galioja nuo 09 metu 06 UTC su 09 metu 18 UTC
Vėjas 7 kt iš Šiaurės Vakarų
Matomumas 10 km arba daugiau
nėra debesų žemiau 1500 m ir nėra kamuolinių lietaus debesų

TAF: SBSM 090300Z 0906/0918 32007KT CAVOK TN20/0908Z TX34/0918Z RMK PDJ

Orai ataskaitas ir orų prognozės (METAR, TAF).

turimą stotys yra geltonos ir raudonos taškus žemėlapyje.

Perkelti pele per norėdami pamatyti stoties vardą.

Tada spustelėkite, norėdami matyti oro stebėjimo ir prognozės.

Norėdami pakeisti žemėlapį: spustelėkite ant žalios mygtukų su juodo kryžiaus žemyn,; žalią mygtuką su brūkšneliu, jei norite nutolinti; arba žalių rodyklių gretimoms žemėlapius.


METAR-TAF: